sensor_id;sensor_type;location;lat;lon;timestamp;pressure;altitude;pressure_sealevel;temperature;humidity
60920;BME280;59039;52.108;19.942;2023-08-01T00:02:18;99698.91;;;19.97;61.59
60920;BME280;59039;52.108;19.942;2023-08-01T00:04:43;99694.02;;;19.95;61.66
60920;BME280;59039;52.108;19.942;2023-08-01T00:07:09;99690.02;;;19.95;61.91
60920;BME280;59039;52.108;19.942;2023-08-01T00:09:34;99689.95;;;19.94;61.74
60920;BME280;59039;52.108;19.942;2023-08-01T00:11:59;99689.41;;;19.93;61.70
60920;BME280;59039;52.108;19.942;2023-08-01T00:14:24;99689.84;;;19.93;61.70
60920;BME280;59039;52.108;19.942;2023-08-01T00:16:50;99685.15;;;19.92;61.88
60920;BME280;59039;52.108;19.942;2023-08-01T00:19:15;99685.58;;;19.92;61.88
60920;BME280;59039;52.108;19.942;2023-08-01T00:21:41;99690.45;;;19.92;61.85
60920;BME280;59039;52.108;19.942;2023-08-01T00:24:06;99686.68;;;19.92;61.86
60920;BME280;59039;52.108;19.942;2023-08-01T00:26:31;99683.55;;;19.92;61.88
60920;BME280;59039;52.108;19.942;2023-08-01T00:28:56;99677.02;;;19.91;61.87
60920;BME280;59039;52.108;19.942;2023-08-01T00:31:22;99674.85;;;19.91;61.94
60920;BME280;59039;52.108;19.942;2023-08-01T00:33:47;99673.80;;;19.91;61.82
60920;BME280;59039;52.108;19.942;2023-08-01T00:36:12;99671.48;;;19.90;61.62
60920;BME280;59039;52.108;19.942;2023-08-01T00:38:37;99667.96;;;19.89;61.71
60920;BME280;59039;52.108;19.942;2023-08-01T00:41:03;99662.27;;;19.89;61.67
60920;BME280;59039;52.108;19.942;2023-08-01T00:43:28;99660.58;;;19.89;61.78
60920;BME280;59039;52.108;19.942;2023-08-01T00:45:59;99656.98;;;19.89;61.80
60920;BME280;59039;52.108;19.942;2023-08-01T00:48:24;99654.53;;;19.88;61.66
60920;BME280;59039;52.108;19.942;2023-08-01T00:50:50;99656.71;;;19.87;61.74
60920;BME280;59039;52.108;19.942;2023-08-01T00:53:16;99658.38;;;19.86;61.72
60920;BME280;59039;52.108;19.942;2023-08-01T00:55:43;99654.36;;;19.84;61.64
60920;BME280;59039;52.108;19.942;2023-08-01T00:58:08;99651.14;;;19.83;61.50
60920;BME280;59039;52.108;19.942;2023-08-01T01:00:33;99649.48;;;19.82;61.34
60920;BME280;59039;52.108;19.942;2023-08-01T01:02:59;99648.05;;;19.81;61.31
60920;BME280;59039;52.108;19.942;2023-08-01T01:05:24;99646.00;;;19.80;61.21
60920;BME280;59039;52.108;19.942;2023-08-01T01:07:50;99639.57;;;19.79;61.26
60920;BME280;59039;52.108;19.942;2023-08-01T01:10:16;99633.97;;;19.78;61.39
60920;BME280;59039;52.108;19.942;2023-08-01T01:12:41;99630.75;;;19.77;61.27
60920;BME280;59039;52.108;19.942;2023-08-01T01:15:06;99626.48;;;19.76;61.25
60920;BME280;59039;52.108;19.942;2023-08-01T01:17:32;99619.45;;;19.76;61.26
60920;BME280;59039;52.108;19.942;2023-08-01T01:19:57;99617.85;;;19.75;61.20
60920;BME280;59039;52.108;19.942;2023-08-01T01:22:22;99614.75;;;19.75;61.35
60920;BME280;59039;52.108;19.942;2023-08-01T01:24:47;99611.70;;;19.74;61.23
60920;BME280;59039;52.108;19.942;2023-08-01T01:27:15;99608.88;;;19.74;61.00
60920;BME280;59039;52.108;19.942;2023-08-01T01:29:42;99601.90;;;19.73;61.10
60920;BME280;59039;52.108;19.942;2023-08-01T01:32:08;99599.20;;;19.71;60.97
60920;BME280;59039;52.108;19.942;2023-08-01T01:34:34;99595.85;;;19.69;61.06
60920;BME280;59039;52.108;19.942;2023-08-01T01:36:59;99590.66;;;19.68;60.86
60920;BME280;59039;52.108;19.942;2023-08-01T01:39:25;99589.40;;;19.66;60.94
60920;BME280;59039;52.108;19.942;2023-08-01T01:41:50;99583.23;;;19.66;61.00
60920;BME280;59039;52.108;19.942;2023-08-01T01:44:15;99578.41;;;19.65;60.88
60920;BME280;59039;52.108;19.942;2023-08-01T01:46:40;99575.36;;;19.65;61.02
60920;BME280;59039;52.108;19.942;2023-08-01T01:49:06;99573.46;;;19.64;60.98
60920;BME280;59039;52.108;19.942;2023-08-01T01:51:31;99566.98;;;19.63;61.00
60920;BME280;59039;52.108;19.942;2023-08-01T01:53:56;99559.14;;;19.62;61.14
60920;BME280;59039;52.108;19.942;2023-08-01T01:56:22;99556.13;;;19.63;61.16
60920;BME280;59039;52.108;19.942;2023-08-01T01:58:47;99553.34;;;19.62;61.10
60920;BME280;59039;52.108;19.942;2023-08-01T02:01:12;99547.91;;;19.61;61.10
60920;BME280;59039;52.108;19.942;2023-08-01T02:03:38;99539.96;;;19.60;61.04
60920;BME280;59039;52.108;19.942;2023-08-01T02:06:03;99539.85;;;19.60;60.88
60920;BME280;59039;52.108;19.942;2023-08-01T02:08:29;99534.92;;;19.59;61.17
60920;BME280;59039;52.108;19.942;2023-08-01T02:10:54;99534.90;;;19.59;61.11
60920;BME280;59039;52.108;19.942;2023-08-01T02:13:19;99530.08;;;19.58;61.17
60920;BME280;59039;52.108;19.942;2023-08-01T02:15:45;99526.19;;;19.57;61.12
60920;BME280;59039;52.108;19.942;2023-08-01T02:18:10;99523.13;;;19.55;61.07
60920;BME280;59039;52.108;19.942;2023-08-01T02:20:35;99519.88;;;19.54;61.24
60920;BME280;59039;52.108;19.942;2023-08-01T02:23:00;99515.66;;;19.52;61.29
60920;BME280;59039;52.108;19.942;2023-08-01T02:25:25;99510.63;;;19.52;61.23
60920;BME280;59039;52.108;19.942;2023-08-01T02:27:51;99506.45;;;19.50;61.32
60920;BME280;59039;52.108;19.942;2023-08-01T02:30:16;99504.94;;;19.49;61.33
60920;BME280;59039;52.108;19.942;2023-08-01T02:32:41;99503.39;;;19.49;61.43
60920;BME280;59039;52.108;19.942;2023-08-01T02:35:07;99504.08;;;19.48;61.38
60920;BME280;59039;52.108;19.942;2023-08-01T02:37:32;99502.23;;;19.46;61.41
60920;BME280;59039;52.108;19.942;2023-08-01T02:39:57;99499.33;;;19.45;61.47
60920;BME280;59039;52.108;19.942;2023-08-01T02:42:22;99493.52;;;19.45;61.58
60920;BME280;59039;52.108;19.942;2023-08-01T02:44:48;99492.92;;;19.45;61.63
60920;BME280;59039;52.108;19.942;2023-08-01T02:47:13;99488.45;;;19.44;61.56
60920;BME280;59039;52.108;19.942;2023-08-01T02:49:38;99484.04;;;19.44;61.53
60920;BME280;59039;52.108;19.942;2023-08-01T02:52:03;99478.99;;;19.44;61.67
60920;BME280;59039;52.108;19.942;2023-08-01T02:54:28;99477.31;;;19.43;61.71
60920;BME280;59039;52.108;19.942;2023-08-01T02:56:54;99476.02;;;19.41;61.64
60920;BME280;59039;52.108;19.942;2023-08-01T02:59:19;99473.12;;;19.40;61.53
60920;BME280;59039;52.108;19.942;2023-08-01T03:01:44;99472.20;;;19.39;61.69
60920;BME280;59039;52.108;19.942;2023-08-01T03:04:09;99470.19;;;19.37;61.74
60920;BME280;59039;52.108;19.942;2023-08-01T03:06:35;99464.20;;;19.36;61.67
60920;BME280;59039;52.108;19.942;2023-08-01T03:09:00;99462.06;;;19.34;61.78
60920;BME280;59039;52.108;19.942;2023-08-01T03:11:26;99456.08;;;19.32;61.74
60920;BME280;59039;52.108;19.942;2023-08-01T03:13:51;99454.87;;;19.31;61.76
60920;BME280;59039;52.108;19.942;2023-08-01T03:16:17;99455.15;;;19.29;61.84
60920;BME280;59039;52.108;19.942;2023-08-01T03:18:42;99452.15;;;19.28;61.89
60920;BME280;59039;52.108;19.942;2023-08-01T03:21:07;99448.77;;;19.27;61.83
60920;BME280;59039;52.108;19.942;2023-08-01T03:23:33;99445.66;;;19.26;61.91
60920;BME280;59039;52.108;19.942;2023-08-01T03:25:58;99443.54;;;19.26;61.87
60920;BME280;59039;52.108;19.942;2023-08-01T03:28:25;99436.82;;;19.25;61.90
60920;BME280;59039;52.108;19.942;2023-08-01T03:30:50;99435.19;;;19.24;61.86
60920;BME280;59039;52.108;19.942;2023-08-01T03:33:16;99431.61;;;19.24;61.94
60920;BME280;59039;52.108;19.942;2023-08-01T03:35:41;99432.80;;;19.24;61.84
60920;BME280;59039;52.108;19.942;2023-08-01T03:38:07;99430.65;;;19.24;61.86
60920;BME280;59039;52.108;19.942;2023-08-01T03:40:32;99426.45;;;19.23;61.95
60920;BME280;59039;52.108;19.942;2023-08-01T03:42:57;99422.98;;;19.23;62.14
60920;BME280;59039;52.108;19.942;2023-08-01T03:45:22;99417.24;;;19.22;61.91
60920;BME280;59039;52.108;19.942;2023-08-01T03:47:48;99419.72;;;19.23;62.12
60920;BME280;59039;52.108;19.942;2023-08-01T03:50:13;99415.32;;;19.23;62.24
60920;BME280;59039;52.108;19.942;2023-08-01T03:52:38;99412.93;;;19.24;62.22
60920;BME280;59039;52.108;19.942;2023-08-01T03:55:04;99407.76;;;19.24;62.18
60920;BME280;59039;52.108;19.942;2023-08-01T03:57:29;99403.90;;;19.24;62.14
60920;BME280;59039;52.108;19.942;2023-08-01T03:59:54;99403.69;;;19.25;62.37
60920;BME280;59039;52.108;19.942;2023-08-01T04:02:19;99404.92;;;19.26;62.43
60920;BME280;59039;52.108;19.942;2023-08-01T04:04:45;99405.02;;;19.28;62.42
60920;BME280;59039;52.108;19.942;2023-08-01T04:07:10;99402.71;;;19.30;62.52
60920;BME280;59039;52.108;19.942;2023-08-01T04:09:35;99405.33;;;19.33;62.56
60920;BME280;59039;52.108;19.942;2023-08-01T04:12:00;99406.92;;;19.37;62.63
60920;BME280;59039;52.108;19.942;2023-08-01T04:14:25;99410.85;;;19.40;62.56
60920;BME280;59039;52.108;19.942;2023-08-01T04:16:51;99411.41;;;19.42;62.70
60920;BME280;59039;52.108;19.942;2023-08-01T04:19:16;99410.91;;;19.44;62.38
60920;BME280;59039;52.108;19.942;2023-08-01T04:21:41;99412.91;;;19.46;62.42
60920;BME280;59039;52.108;19.942;2023-08-01T04:24:06;99413.63;;;19.47;62.50
60920;BME280;59039;52.108;19.942;2023-08-01T04:26:32;99414.40;;;19.48;62.32
60920;BME280;59039;52.108;19.942;2023-08-01T04:28:57;99411.55;;;19.48;62.40
60920;BME280;59039;52.108;19.942;2023-08-01T04:31:22;99402.93;;;19.50;62.41
60920;BME280;59039;52.108;19.942;2023-08-01T04:33:47;99398.64;;;19.50;62.43
60920;BME280;59039;52.108;19.942;2023-08-01T04:36:13;99394.41;;;19.50;62.34
60920;BME280;59039;52.108;19.942;2023-08-01T04:38:38;99392.52;;;19.50;62.17
60920;BME280;59039;52.108;19.942;2023-08-01T04:41:03;99383.92;;;19.50;62.21
60920;BME280;59039;52.108;19.942;2023-08-01T04:43:28;99377.73;;;19.49;62.10
60920;BME280;59039;52.108;19.942;2023-08-01T04:45:53;99382.73;;;19.48;62.14
60920;BME280;59039;52.108;19.942;2023-08-01T04:48:19;99378.70;;;19.48;62.31
60920;BME280;59039;52.108;19.942;2023-08-01T04:50:44;99380.36;;;19.48;62.17
60920;BME280;59039;52.108;19.942;2023-08-01T04:53:10;99377.55;;;19.49;62.10
60920;BME280;59039;52.108;19.942;2023-08-01T04:55:35;99375.52;;;19.49;62.08
60920;BME280;59039;52.108;19.942;2023-08-01T04:58:00;99370.59;;;19.50;62.18
60920;BME280;59039;52.108;19.942;2023-08-01T05:00:25;99371.04;;;19.50;62.05
60920;BME280;59039;52.108;19.942;2023-08-01T05:02:50;99368.07;;;19.51;61.90
60920;BME280;59039;52.108;19.942;2023-08-01T05:05:16;99372.12;;;19.51;62.04
60920;BME280;59039;52.108;19.942;2023-08-01T05:07:41;99370.74;;;19.52;62.16
60920;BME280;59039;52.108;19.942;2023-08-01T05:10:07;99368.47;;;19.54;62.07
60920;BME280;59039;52.108;19.942;2023-08-01T05:12:32;99365.65;;;19.55;61.99
60920;BME280;59039;52.108;19.942;2023-08-01T05:14:57;99362.91;;;19.56;61.81
60920;BME280;59039;52.108;19.942;2023-08-01T05:17:23;99361.70;;;19.57;61.86
60920;BME280;59039;52.108;19.942;2023-08-01T05:19:48;99357.45;;;19.58;61.69
60920;BME280;59039;52.108;19.942;2023-08-01T05:22:13;99356.00;;;19.58;61.52
60920;BME280;59039;52.108;19.942;2023-08-01T05:24:38;99352.72;;;19.59;61.77
60920;BME280;59039;52.108;19.942;2023-08-01T05:27:04;99354.29;;;19.60;61.65
60920;BME280;59039;52.108;19.942;2023-08-01T05:29:29;99356.52;;;19.61;61.52
60920;BME280;59039;52.108;19.942;2023-08-01T05:31:54;99352.73;;;19.63;61.66
60920;BME280;59039;52.108;19.942;2023-08-01T05:34:19;99351.96;;;19.64;61.64
60920;BME280;59039;52.108;19.942;2023-08-01T05:36:45;99352.05;;;19.66;61.51
60920;BME280;59039;52.108;19.942;2023-08-01T05:39:10;99348.08;;;19.68;61.44
60920;BME280;59039;52.108;19.942;2023-08-01T05:41:35;99350.06;;;19.70;61.43
60920;BME280;59039;52.108;19.942;2023-08-01T05:44:00;99346.43;;;19.71;61.28
60920;BME280;59039;52.108;19.942;2023-08-01T05:46:25;99348.17;;;19.73;61.24
60920;BME280;59039;52.108;19.942;2023-08-01T05:48:51;99346.36;;;19.76;61.10
60920;BME280;59039;52.108;19.942;2023-08-01T05:51:16;99346.57;;;19.80;61.02
60920;BME280;59039;52.108;19.942;2023-08-01T05:53:41;99343.72;;;19.84;61.08
60920;BME280;59039;52.108;19.942;2023-08-01T05:56:06;99343.34;;;19.89;60.97
60920;BME280;59039;52.108;19.942;2023-08-01T05:58:31;99342.06;;;19.93;60.84
60920;BME280;59039;52.108;19.942;2023-08-01T06:00:57;99341.05;;;19.97;60.69
60920;BME280;59039;52.108;19.942;2023-08-01T06:03:22;99337.49;;;20.01;60.46
60920;BME280;59039;52.108;19.942;2023-08-01T06:05:47;99333.59;;;20.05;60.40
60920;BME280;59039;52.108;19.942;2023-08-01T06:08:13;99326.71;;;20.09;60.21
60920;BME280;59039;52.108;19.942;2023-08-01T06:10:38;99328.57;;;20.13;60.23
60920;BME280;59039;52.108;19.942;2023-08-01T06:13:03;99326.13;;;20.15;60.05
60920;BME280;59039;52.108;19.942;2023-08-01T06:15:28;99329.35;;;20.19;59.82
60920;BME280;59039;52.108;19.942;2023-08-01T06:17:54;99326.67;;;20.22;59.83
60920;BME280;59039;52.108;19.942;2023-08-01T06:20:19;99319.64;;;20.25;59.71
60920;BME280;59039;52.108;19.942;2023-08-01T06:22:44;99317.45;;;20.28;59.70
60920;BME280;59039;52.108;19.942;2023-08-01T06:25:09;99314.85;;;20.31;59.77
60920;BME280;59039;52.108;19.942;2023-08-01T06:27:35;99316.62;;;20.33;59.73
60920;BME280;59039;52.108;19.942;2023-08-01T06:30:00;99312.75;;;20.35;59.75
60920;BME280;59039;52.108;19.942;2023-08-01T06:32:25;99312.73;;;20.38;59.39
60920;BME280;59039;52.108;19.942;2023-08-01T06:34:51;99312.39;;;20.40;59.43
60920;BME280;59039;52.108;19.942;2023-08-01T06:37:16;99311.16;;;20.42;59.48
60920;BME280;59039;52.108;19.942;2023-08-01T06:39:41;99310.77;;;20.44;59.49
60920;BME280;59039;52.108;19.942;2023-08-01T06:42:06;99305.52;;;20.48;59.48
60920;BME280;59039;52.108;19.942;2023-08-01T06:44:32;99295.57;;;20.50;59.54
60920;BME280;59039;52.108;19.942;2023-08-01T06:46:57;99294.92;;;20.54;59.28
60920;BME280;59039;52.108;19.942;2023-08-01T06:49:22;99295.69;;;20.57;59.32
60920;BME280;59039;52.108;19.942;2023-08-01T06:51:47;99289.90;;;20.61;59.54
60920;BME280;59039;52.108;19.942;2023-08-01T06:54:13;99287.63;;;20.66;59.56
60920;BME280;59039;52.108;19.942;2023-08-01T06:56:38;99287.45;;;20.72;59.63
60920;BME280;59039;52.108;19.942;2023-08-01T06:59:03;99286.81;;;20.77;59.76
60920;BME280;59039;52.108;19.942;2023-08-01T07:01:28;99288.23;;;20.81;59.55
60920;BME280;59039;52.108;19.942;2023-08-01T07:03:53;99293.27;;;20.85;59.32
60920;BME280;59039;52.108;19.942;2023-08-01T07:06:19;99292.51;;;20.90;59.29
60920;BME280;59039;52.108;19.942;2023-08-01T07:08:44;99292.23;;;20.93;59.12
60920;BME280;59039;52.108;19.942;2023-08-01T07:11:09;99291.46;;;20.97;59.15
60920;BME280;59039;52.108;19.942;2023-08-01T07:13:35;99287.66;;;21.00;58.98
60920;BME280;59039;52.108;19.942;2023-08-01T07:16:00;99286.21;;;21.03;58.90
60920;BME280;59039;52.108;19.942;2023-08-01T07:18:25;99281.70;;;21.07;58.91
60920;BME280;59039;52.108;19.942;2023-08-01T07:21:04;99276.06;;;21.11;59.34
60920;BME280;59039;52.108;19.942;2023-08-01T07:23:30;99275.52;;;21.15;59.06
60920;BME280;59039;52.108;19.942;2023-08-01T07:25:56;99276.52;;;21.19;58.92
60920;BME280;59039;52.108;19.942;2023-08-01T07:28:21;99269.61;;;21.22;58.85
60920;BME280;59039;52.108;19.942;2023-08-01T07:30:46;99272.97;;;21.25;58.72
60920;BME280;59039;52.108;19.942;2023-08-01T07:33:11;99268.88;;;21.29;58.72
60920;BME280;59039;52.108;19.942;2023-08-01T07:35:37;99270.08;;;21.32;58.70
60920;BME280;59039;52.108;19.942;2023-08-01T07:38:02;99264.21;;;21.35;58.40
60920;BME280;59039;52.108;19.942;2023-08-01T07:40:27;99265.83;;;21.39;58.31
60920;BME280;59039;52.108;19.942;2023-08-01T07:42:52;99259.94;;;21.42;58.41
60920;BME280;59039;52.108;19.942;2023-08-01T07:45:18;99264.73;;;21.45;58.57
60920;BME280;59039;52.108;19.942;2023-08-01T07:47:43;99264.52;;;21.50;58.39
60920;BME280;59039;52.108;19.942;2023-08-01T07:50:08;99264.75;;;21.54;58.18
60920;BME280;59039;52.108;19.942;2023-08-01T07:52:33;99264.92;;;21.59;58.20
60920;BME280;59039;52.108;19.942;2023-08-01T07:54:59;99264.14;;;21.62;58.20
60920;BME280;59039;52.108;19.942;2023-08-01T07:57:24;99261.27;;;21.66;58.22
60920;BME280;59039;52.108;19.942;2023-08-01T07:59:49;99258.60;;;21.70;58.15
60920;BME280;59039;52.108;19.942;2023-08-01T08:02:14;99256.16;;;21.74;58.46
60920;BME280;59039;52.108;19.942;2023-08-01T08:04:40;99254.23;;;21.77;58.45
60920;BME280;59039;52.108;19.942;2023-08-01T08:07:05;99255.83;;;21.82;58.03
60920;BME280;59039;52.108;19.942;2023-08-01T08:09:30;99255.63;;;21.89;58.02
60920;BME280;59039;52.108;19.942;2023-08-01T08:11:55;99248.81;;;21.96;57.85
60920;BME280;59039;52.108;19.942;2023-08-01T08:14:20;99244.56;;;22.02;57.71
60920;BME280;59039;52.108;19.942;2023-08-01T08:16:46;99245.80;;;22.08;57.55
60920;BME280;59039;52.108;19.942;2023-08-01T08:19:11;99246.80;;;22.14;57.53
60920;BME280;59039;52.108;19.942;2023-08-01T08:21:36;99242.80;;;22.20;57.22
60920;BME280;59039;52.108;19.942;2023-08-01T08:24:01;99245.58;;;22.26;57.06
60920;BME280;59039;52.108;19.942;2023-08-01T08:26:26;99245.69;;;22.30;56.80
60920;BME280;59039;52.108;19.942;2023-08-01T08:28:52;99250.17;;;22.35;56.66
60920;BME280;59039;52.108;19.942;2023-08-01T08:31:17;99254.98;;;22.39;56.70
60920;BME280;59039;52.108;19.942;2023-08-01T08:33:42;99258.65;;;22.42;56.74
60920;BME280;59039;52.108;19.942;2023-08-01T08:36:07;99258.79;;;22.45;56.25
60920;BME280;59039;52.108;19.942;2023-08-01T08:38:33;99260.59;;;22.47;56.16
60920;BME280;59039;52.108;19.942;2023-08-01T08:41:33;99267.59;;;22.50;56.27
60920;BME280;59039;52.108;19.942;2023-08-01T08:44:01;99266.73;;;22.52;56.48
60920;BME280;59039;52.108;19.942;2023-08-01T08:46:29;99262.30;;;22.55;56.29
60920;BME280;59039;52.108;19.942;2023-08-01T08:48:58;99266.60;;;22.56;56.63
60920;BME280;59039;52.108;19.942;2023-08-01T08:51:28;99267.27;;;22.56;56.27
60920;BME280;59039;52.108;19.942;2023-08-01T08:53:54;99268.88;;;22.56;56.59
60920;BME280;59039;52.108;19.942;2023-08-01T08:56:21;99271.25;;;22.56;57.38
60920;BME280;59039;52.108;19.942;2023-08-01T08:58:47;99269.72;;;22.58;57.99
60920;BME280;59039;52.108;19.942;2023-08-01T09:01:12;99273.41;;;22.58;57.90
60920;BME280;59039;52.108;19.942;2023-08-01T09:03:38;99273.30;;;22.57;58.27
60920;BME280;59039;52.108;19.942;2023-08-01T09:06:07;99270.76;;;22.57;58.35
60920;BME280;59039;52.108;19.942;2023-08-01T09:08:35;99266.14;;;22.56;58.90
60920;BME280;59039;52.108;19.942;2023-08-01T09:11:01;99259.33;;;22.55;59.03
60920;BME280;59039;52.108;19.942;2023-08-01T09:13:26;99257.98;;;22.53;59.00
60920;BME280;59039;52.108;19.942;2023-08-01T09:15:52;99248.60;;;22.51;59.51
60920;BME280;59039;52.108;19.942;2023-08-01T09:18:17;99243.21;;;22.49;60.14
60920;BME280;59039;52.108;19.942;2023-08-01T09:20:44;99245.41;;;22.46;60.46
60920;BME280;59039;52.108;19.942;2023-08-01T09:23:10;99243.77;;;22.44;60.71
60920;BME280;59039;52.108;19.942;2023-08-01T09:25:35;99246.14;;;22.41;61.01
60920;BME280;59039;52.108;19.942;2023-08-01T09:28:00;99246.81;;;22.38;61.05
60920;BME280;59039;52.108;19.942;2023-08-01T09:30:26;99245.40;;;22.35;61.33
60920;BME280;59039;52.108;19.942;2023-08-01T09:32:55;99246.86;;;22.31;60.93
60920;BME280;59039;52.108;19.942;2023-08-01T09:35:20;99248.86;;;22.28;61.33
60920;BME280;59039;52.108;19.942;2023-08-01T09:37:45;99252.83;;;22.25;61.96
60920;BME280;59039;52.108;19.942;2023-08-01T09:40:11;99248.97;;;22.22;62.35
60920;BME280;59039;52.108;19.942;2023-08-01T09:42:40;99248.59;;;22.20;62.87
60920;BME280;59039;52.108;19.942;2023-08-01T09:45:16;99247.95;;;22.17;63.23
60920;BME280;59039;52.108;19.942;2023-08-01T09:47:43;99245.63;;;22.14;63.94
60920;BME280;59039;52.108;19.942;2023-08-01T09:50:10;99244.92;;;22.10;63.78
60920;BME280;59039;52.108;19.942;2023-08-01T09:52:35;99246.00;;;22.07;63.95
60920;BME280;59039;52.108;19.942;2023-08-01T09:55:00;99242.86;;;22.03;64.69
60920;BME280;59039;52.108;19.942;2023-08-01T09:57:29;99239.78;;;22.00;65.17
60920;BME280;59039;52.108;19.942;2023-08-01T09:59:56;99240.30;;;21.97;65.73
60920;BME280;59039;52.108;19.942;2023-08-01T10:02:24;99236.10;;;21.93;66.19
60920;BME280;59039;52.108;19.942;2023-08-01T10:04:52;99233.13;;;21.89;66.22
60920;BME280;59039;52.108;19.942;2023-08-01T10:07:23;99232.98;;;21.86;66.43
60920;BME280;59039;52.108;19.942;2023-08-01T10:09:49;99229.77;;;21.82;66.96
60920;BME280;59039;52.108;19.942;2023-08-01T10:12:17;99227.96;;;21.78;66.57
60920;BME280;59039;52.108;19.942;2023-08-01T10:14:42;99221.72;;;21.75;66.24
60920;BME280;59039;52.108;19.942;2023-08-01T10:17:10;99223.66;;;21.72;66.24
60920;BME280;59039;52.108;19.942;2023-08-01T10:19:36;99220.88;;;21.70;66.56
60920;BME280;59039;52.108;19.942;2023-08-01T10:22:03;99214.33;;;21.68;66.14
60920;BME280;59039;52.108;19.942;2023-08-01T10:24:29;99215.98;;;21.67;66.46
60920;BME280;59039;52.108;19.942;2023-08-01T10:26:55;99210.40;;;21.66;66.47
60920;BME280;59039;52.108;19.942;2023-08-01T10:29:20;99209.72;;;21.66;66.76
60920;BME280;59039;52.108;19.942;2023-08-01T10:31:53;99203.64;;;21.66;67.11
60920;BME280;59039;52.108;19.942;2023-08-01T10:34:19;99194.55;;;21.65;67.62
60920;BME280;59039;52.108;19.942;2023-08-01T10:36:53;99195.98;;;21.64;67.73
60920;BME280;59039;52.108;19.942;2023-08-01T10:39:22;99187.52;;;21.63;67.61
60920;BME280;59039;52.108;19.942;2023-08-01T10:41:57;99182.57;;;21.62;67.85
60920;BME280;59039;52.108;19.942;2023-08-01T10:44:22;99179.44;;;21.63;68.13
60920;BME280;59039;52.108;19.942;2023-08-01T10:49:41;99166.42;;;21.66;67.92
60920;BME280;59039;52.108;19.942;2023-08-01T10:52:24;99163.51;;;21.67;67.62
60920;BME280;59039;52.108;19.942;2023-08-01T10:55:00;99161.15;;;21.70;67.55
60920;BME280;59039;52.108;19.942;2023-08-01T10:57:27;99157.41;;;21.71;67.65
60920;BME280;59039;52.108;19.942;2023-08-01T10:59:55;99151.75;;;21.74;67.15
60920;BME280;59039;52.108;19.942;2023-08-01T11:02:22;99142.08;;;21.77;66.81
60920;BME280;59039;52.108;19.942;2023-08-01T11:05:02;99139.86;;;21.80;66.66
60920;BME280;59039;52.108;19.942;2023-08-01T11:07:28;99137.34;;;21.83;66.77
60920;BME280;59039;52.108;19.942;2023-08-01T11:10:11;99134.35;;;21.86;66.56
60920;BME280;59039;52.108;19.942;2023-08-01T11:12:38;99129.41;;;21.91;66.72
60920;BME280;59039;52.108;19.942;2023-08-01T11:15:06;99123.25;;;21.94;66.86
60920;BME280;59039;52.108;19.942;2023-08-01T11:17:32;99121.48;;;22.00;66.76
60920;BME280;59039;52.108;19.942;2023-08-01T11:20:07;99115.94;;;22.05;66.39
60920;BME280;59039;52.108;19.942;2023-08-01T11:22:33;99114.83;;;22.09;65.90
60920;BME280;59039;52.108;19.942;2023-08-01T11:24:58;99111.48;;;22.14;65.73
60920;BME280;59039;52.108;19.942;2023-08-01T11:27:25;99110.64;;;22.18;65.77
60920;BME280;59039;52.108;19.942;2023-08-01T11:29:50;99111.77;;;22.21;65.36
60920;BME280;59039;52.108;19.942;2023-08-01T11:32:15;99108.88;;;22.23;65.05
60920;BME280;59039;52.108;19.942;2023-08-01T11:34:42;99103.25;;;22.24;64.68
60920;BME280;59039;52.108;19.942;2023-08-01T11:37:07;99100.27;;;22.25;64.65
60920;BME280;59039;52.108;19.942;2023-08-01T11:39:33;99099.23;;;22.27;64.27
60920;BME280;59039;52.108;19.942;2023-08-01T11:41:58;99097.14;;;22.27;64.03
60920;BME280;59039;52.108;19.942;2023-08-01T11:44:24;99095.48;;;22.28;64.18
60920;BME280;59039;52.108;19.942;2023-08-01T11:46:49;99097.16;;;22.30;64.07
60920;BME280;59039;52.108;19.942;2023-08-01T11:49:14;99094.96;;;22.33;64.20
60920;BME280;59039;52.108;19.942;2023-08-01T11:51:41;99093.83;;;22.35;64.08
60920;BME280;59039;52.108;19.942;2023-08-01T11:54:07;99091.79;;;22.37;64.11
60920;BME280;59039;52.108;19.942;2023-08-01T11:56:33;99094.92;;;22.40;64.02
60920;BME280;59039;52.108;19.942;2023-08-01T11:58:58;99094.98;;;22.41;63.81
60920;BME280;59039;52.108;19.942;2023-08-01T12:01:23;99090.27;;;22.41;63.80
60920;BME280;59039;52.108;19.942;2023-08-01T12:03:53;99090.27;;;22.43;63.70
60920;BME280;59039;52.108;19.942;2023-08-01T12:06:22;99086.41;;;22.43;63.56
60920;BME280;59039;52.108;19.942;2023-08-01T12:08:50;99078.77;;;22.43;63.74
60920;BME280;59039;52.108;19.942;2023-08-01T12:11:27;99073.59;;;22.44;63.79
60920;BME280;59039;52.108;19.942;2023-08-01T12:14:19;99076.29;;;22.46;63.82
60920;BME280;59039;52.108;19.942;2023-08-01T12:16:46;99070.98;;;22.46;63.84
60920;BME280;59039;52.108;19.942;2023-08-01T12:19:18;99067.27;;;22.47;63.61
60920;BME280;59039;52.108;19.942;2023-08-01T12:21:44;99064.90;;;22.47;63.65
60920;BME280;59039;52.108;19.942;2023-08-01T12:24:10;99066.23;;;22.48;63.62
60920;BME280;59039;52.108;19.942;2023-08-01T12:26:35;99061.27;;;22.49;63.53
60920;BME280;59039;52.108;19.942;2023-08-01T12:29:00;99061.44;;;22.51;63.59
60920;BME280;59039;52.108;19.942;2023-08-01T12:31:25;99058.73;;;22.52;63.49
60920;BME280;59039;52.108;19.942;2023-08-01T12:33:51;99056.42;;;22.54;63.51
60920;BME280;59039;52.108;19.942;2023-08-01T12:36:16;99051.89;;;22.56;63.37
60920;BME280;59039;52.108;19.942;2023-08-01T12:38:42;99049.23;;;22.57;63.06
60920;BME280;59039;52.108;19.942;2023-08-01T12:41:07;99042.38;;;22.58;62.45
60920;BME280;59039;52.108;19.942;2023-08-01T12:43:33;99042.73;;;22.61;61.19
60920;BME280;59039;52.108;19.942;2023-08-01T12:45:58;99036.59;;;22.63;60.34
60920;BME280;59039;52.108;19.942;2023-08-01T12:48:27;99034.89;;;22.65;60.02